Time;durP1;ratioP1;P1;durP2;ratioP2;P2;SDS_P1;SDS_P2;PMS_P1;PMS_P2;Temp;Humidity;BMP_temperature;BMP_pressure;BME280_temperature;BME280_humidity;BME280_pressure;Samples;Min_cycle;Max_cycle;Signal;HPM_P1;HPM_P2
2022/10/23 00:00:38;;;;;;;17.50;9.38;;;;;;;;;;6149797;23;20028;-75
2022/10/23 00:03:04;;;;;;;17.58;8.63;;;;;;;;;;6125135;23;20033;-76
2022/10/23 00:05:30;;;;;;;20.08;9.38;;;;;;;;;;6125065;23;20052;-75
2022/10/23 00:07:57;;;;;;;13.40;8.65;;;;;;;;;;6124378;23;20013;-75
2022/10/23 00:10:24;;;;;;;26.58;9.82;;;;;;;;;;6149216;23;20010;-76
2022/10/23 00:12:50;;;;;;;17.70;9.52;;;;;;;;;;6125950;23;20021;-76
2022/10/23 00:15:18;;;;;;;16.98;9.00;;;;;;;;;;6123390;23;20009;-76
2022/10/23 00:17:44;;;;;;;19.70;9.68;;;;;;;;;;6149572;23;20657;-75
2022/10/23 00:20:11;;;;;;;20.85;9.68;;;;;;;;;;6147676;23;20485;-76
2022/10/23 00:22:38;;;;;;;14.65;8.45;;;;;;;;;;6149430;23;20665;-75
2022/10/23 00:25:05;;;;;;;14.60;8.65;;;;;;;;;;6124876;23;20376;-76
2022/10/23 00:27:30;;;;;;;14.95;8.80;;;15.40;99.90;;;;;;6100731;23;20332;-75
2022/10/23 00:29:56;;;;;;;15.75;9.23;;;12.00;99.90;;;;;;6100639;23;20010;-76
2022/10/23 00:32:22;;;;;;;17.42;10.90;;;11.90;99.90;;;;;;6149451;23;20017;-76
2022/10/23 00:34:48;;;;;;;22.63;11.48;;;11.90;99.90;;;;;;6150222;23;20103;-75
2022/10/23 00:37:14;;;;;;;18.80;10.43;;;11.90;99.90;;;;;;6125068;23;20099;-75
2022/10/23 00:39:39;;;;;;;17.83;10.43;;;11.90;99.90;;;;;;6149474;23;20017;-75
2022/10/23 00:42:05;;;;;;;17.90;9.98;;;11.90;99.90;;;;;;6125507;23;20017;-75
2022/10/23 00:44:31;;;;;;;16.27;9.32;;;;;;;;;;6124787;23;20568;-75
2022/10/23 00:46:58;;;;;;;18.02;10.02;;;;;;;;;;6149509;23;20056;-76
2022/10/23 00:49:24;;;;;;;16.85;9.60;;;;;;;;;;6125472;23;20013;-75
2022/10/23 00:51:52;;;;;;;17.83;9.38;;;;;;;;;;6149551;23;20255;-76
2022/10/23 00:54:20;;;;;;;16.73;9.15;;;;;;;;;;6149484;23;20014;-75
2022/10/23 00:56:47;;;;;;;20.85;10.45;;;;;;;;;;6149728;23;20021;-76
2022/10/23 00:59:13;;;;;;;18.65;9.25;;;;;;;;;;6149952;23;20423;-75
2022/10/23 01:01:39;;;;;;;18.85;9.85;;;;;;;;;;6149377;23;20013;-75
2022/10/23 01:04:06;;;;;;;15.82;9.60;;;;;;;;;;6148412;23;20078;-76
2022/10/23 01:06:36;;;;;;;13.68;9.63;;;;;;;;;;6149055;23;20092;-76
2022/10/23 01:09:37;;;;;;;21.20;10.38;;;11.90;99.90;;;;;;6149151;23;20074;-75
2022/10/23 01:12:08;;;;;;;18.75;10.15;;;11.80;99.90;;;;;;6057744;23;20014;-76
2022/10/23 01:14:57;;;;;;;16.20;10.15;;;11.80;99.90;;;;;;6149108;23;20014;-76
2022/10/23 01:17:29;;;;;;;17.50;10.57;;;11.70;99.90;;;;;;6148322;23;20017;-76
2022/10/23 01:20:48;;;;;;;14.23;9.90;;;11.70;99.90;;;;;;6149028;23;20021;-75
2022/10/23 01:23:35;;;;;;;19.10;11.10;;;11.60;99.90;;;;;;5984188;23;20023;-75
2022/10/23 01:26:10;;;;;;;18.95;10.55;;;11.60;99.90;;;;;;6008159;23;20058;-75
2022/10/23 01:29:11;;;;;;;16.33;8.95;;;11.60;99.90;;;;;;6099575;23;20104;-76
2022/10/23 01:32:07;;;;;;;17.08;9.98;;;11.60;99.90;;;;;;6098669;23;20028;-75
2022/10/23 01:34:55;;;;;;;16.35;9.77;;;11.60;99.90;;;;;;6125937;23;20017;-76
2022/10/23 01:37:29;;;;;;;18.02;9.40;;;11.60;99.90;;;;;;6126485;23;20316;-75
2022/10/23 01:40:01;;;;;;;14.02;9.85;;;11.50;99.90;;;;;;6151040;23;20021;-75
2022/10/23 01:42:31;;;;;;;11.27;8.80;;;11.50;99.90;;;;;;6126928;23;20072;-75
2022/10/23 01:45:03;;;;;;;17.67;9.95;;;;;;;;;;6151208;23;20014;-76
2022/10/23 01:47:31;;;;;;;18.98;10.55;;;;;;;;;;6150520;23;20474;-76
2022/10/23 01:49:58;;;;;;;15.07;10.23;;;;;;;;;;6151212;23;20100;-75
2022/10/23 01:52:24;;;;;;;12.40;9.32;;;;;;;;;;6151787;23;20435;-76
2022/10/23 01:54:51;;;;;;;18.08;10.23;;;;;;;;;;6149403;23;20089;-76
2022/10/23 01:57:18;;;;;;;19.45;10.90;;;;;;;;;;6150768;23;20018;-75
2022/10/23 01:59:46;;;;;;;15.52;9.02;;;;;;;;;;6149972;23;20014;-76
2022/10/23 02:02:12;;;;;;;13.88;9.60;;;;;;;;;;6151692;23;20097;-75
2022/10/23 02:04:45;;;;;;;19.70;9.50;;;;;;;;;;6146744;23;20072;-75
2022/10/23 02:07:12;;;;;;;17.38;9.73;;;;;;;;;;6148271;23;20021;-75
2022/10/23 02:09:38;;;;;;;15.43;9.77;;;;;;;;;;6147997;23;20123;-75
2022/10/23 02:12:08;;;;;;;18.58;9.57;;;;;;;;;;6147615;23;20080;-76
2022/10/23 02:14:34;;;;;;;13.68;8.98;;;;;;;;;;6148351;23;20653;-75
2022/10/23 02:17:07;;;;;;;14.57;9.05;;;;;;;;;;6147604;23;20017;-75
2022/10/23 02:19:40;;;;;;;13.43;9.38;;;;;;;;;;6147253;23;20072;-76
2022/10/23 02:22:12;;;;;;;13.43;9.55;;;;;;;;;;6148368;23;20018;-76
2022/10/23 02:24:44;;;;;;;13.63;9.02;;;;;;;;;;6123770;23;20057;-76
2022/10/23 02:27:12;;;;;;;13.88;9.77;;;;;;;;;;6150745;23;20017;-75
2022/10/23 02:29:42;;;;;;;12.82;8.98;;;;;;;;;;6150749;23;20017;-76
2022/10/23 02:32:09;;;;;;;15.95;9.02;;;;;;;;;;6123015;23;20024;-76
2022/10/23 02:34:35;;;;;;;11.40;8.75;;;;;;;;;;6147538;23;20014;-76
2022/10/23 02:37:02;;;;;;;15.55;9.93;;;;;;;;;;6146908;23;20077;-76
2022/10/23 02:39:28;;;;;;;13.30;8.82;;;;;;;;;;6147211;23;20022;-76
2022/10/23 02:42:03;;;;;;;16.88;10.18;;;;;;;;;;6124838;23;20069;-75
2022/10/23 02:44:38;;;;;;;14.43;10.10;;;;;;;;;;6150741;23;20428;-76
2022/10/23 02:47:23;;;;;;;14.38;9.05;;;;;;;;;;6150602;23;20563;-77
2022/10/23 02:49:58;;;;;;;11.20;8.13;;;;;;;;;;6151136;23;21277;-77
2022/10/23 02:52:33;;;;;;;13.63;9.23;;;;;;;;;;6150148;23;20021;-77
2022/10/23 02:55:09;;;;;;;12.23;9.40;;;;;;;;;;6151098;23;20014;-75
2022/10/23 02:57:38;;;;;;;15.95;10.32;;;;;;;;;;6125560;23;20471;-75
2022/10/23 03:00:11;;;;;;;11.55;8.65;;;11.50;99.90;;;;;;6150165;23;20013;-76
2022/10/23 03:02:40;;;;;;;16.15;10.65;;;;;;;;;;6125673;23;20021;-75
2022/10/23 03:05:08;;;;;;;20.05;11.10;;;;;;;;;;6150323;23;20024;-75
2022/10/23 03:07:35;;;;;;;14.65;9.63;;;;;;;;;;6125179;23;20013;-75
2022/10/23 03:10:01;;;;;;;13.13;10.30;;;;;;;;;;6149936;23;20101;-75
2022/10/23 03:12:27;;;;;;;15.98;10.77;;;;;;;;;;6150029;23;20017;-75
2022/10/23 03:14:53;;;;;;;19.80;10.85;;;;;;;;;;6149815;23;20013;-75
2022/10/23 03:17:19;;;;;;;13.00;10.05;;;;;;;;;;6149724;23;20018;-75
2022/10/23 03:19:46;;;;;;;15.18;9.95;;;;;;;;;;6150121;23;20080;-76
2022/10/23 03:22:12;;;;;;;16.30;9.75;;;;;;;;;;6126125;23;20399;-75
2022/10/23 03:24:38;;;;;;;25.45;11.07;;;;;;;;;;6150126;23;20024;-76
2022/10/23 03:27:04;;;;;;;13.52;10.13;;;;;;;;;;6149896;23;20096;-75
2022/10/23 03:29:30;;;;;;;14.68;10.02;;;;;;;;;;6150637;23;20010;-75
2022/10/23 03:31:56;;;;;;;14.68;9.88;;;;;;;;;;6150185;23;20021;-75
2022/10/23 03:34:22;;;;;;;13.90;9.52;;;;;;;;;;6149824;23;20017;-76
2022/10/23 03:36:48;;;;;;;13.85;9.18;;;;;;;;;;6150638;23;20025;-76
2022/10/23 03:39:14;;;;;;;14.25;10.32;;;;;;;;;;6125158;23;20017;-75
2022/10/23 03:41:40;;;;;;;12.93;9.43;;;;;;;;;;6149531;23;20738;-75
2022/10/23 03:44:06;;;;;;;12.50;9.70;;;;;;;;;;6125311;23;20049;-75
2022/10/23 03:46:32;;;;;;;15.90;10.40;;;;;;;;;;6149411;23;20063;-76
2022/10/23 03:48:59;;;;;;;12.73;9.38;;;;;;;;;;6149718;23;20339;-75
2022/10/23 03:51:25;;;;;;;14.73;10.52;;;;;;;;;;6150110;23;20021;-77
2022/10/23 03:53:51;;;;;;;21.00;11.48;;;;;;;;;;6150502;23;20045;-75
2022/10/23 03:56:18;;;;;;;16.35;10.57;;;;;;;;;;6149940;23;20045;-75
2022/10/23 03:58:44;;;;;;;14.50;9.25;;;;;;;;;;6149456;23;20113;-75
2022/10/23 04:01:10;;;;;;;16.38;11.35;;;;;;;;;;6150333;23;20014;-75
2022/10/23 04:03:36;;;;;;;14.88;10.00;;;;;;;;;;6150047;23;20017;-75
2022/10/23 04:06:02;;;;;;;17.42;10.45;;;;;;;;;;6150042;23;20019;-75
2022/10/23 04:08:28;;;;;;;13.88;10.00;;;;;;;;;;6150205;23;20025;-75
2022/10/23 04:10:55;;;;;;;13.07;8.73;;;;;;;;;;6077049;23;20412;-75
2022/10/23 04:13:21;;;;;;;14.05;9.32;;;;;;;;;;6149789;23;20677;-75
2022/10/23 04:15:48;;;;;;;16.98;10.30;;;;;;;;;;6150314;23;20033;-75
2022/10/23 04:18:14;;;;;;;14.75;10.10;;;;;;;;;;6149805;23;20013;-75
2022/10/23 04:20:40;;;;;;;17.08;10.07;;;;;;;;;;6149322;23;20017;-75
2022/10/23 04:23:06;;;;;;;16.75;9.75;;;;;;;;;;6149389;23;20021;-75
2022/10/23 04:25:32;;;;;;;14.45;9.98;;;;;;;;;;6125274;23;20049;-75
2022/10/23 04:27:58;;;;;;;14.10;11.02;;;;;;;;;;6149678;23;20100;-75
2022/10/23 04:30:24;;;;;;;15.13;10.02;;;;;;;;;;6149662;23;20006;-76
2022/10/23 04:32:51;;;;;;;15.05;11.50;;;;;;;;;;6150100;23;20021;-75
2022/10/23 04:35:17;;;;;;;13.35;10.63;;;;;;;;;;6149583;23;20526;-75
2022/10/23 04:37:43;;;;;;;14.20;10.20;;;;;;;;;;6125543;23;20044;-76
2022/10/23 04:40:09;;;;;;;14.07;10.73;;;;;;;;;;6150210;23;20017;-75
2022/10/23 04:42:35;;;;;;;16.98;10.70;;;;;;;;;;6148341;23;20013;-75
2022/10/23 04:45:02;;;;;;;13.48;10.20;;;;;;;;;;6146620;23;20025;-75
2022/10/23 04:47:28;;;;;;;15.60;9.93;;;;;;;;;;6145246;23;20515;-76
2022/10/23 04:49:54;;;;;;;14.82;10.27;;;;;;;;;;6097506;23;20032;-75
2022/10/23 04:52:20;;;;;;;13.73;10.30;;;;;;;;;;6096384;23;20013;-75
2022/10/23 04:54:46;;;;;;;18.63;12.63;;;;;;;;;;6144564;23;20013;-75
2022/10/23 04:57:12;;;;;;;15.60;11.45;;;;;;;;;;6147121;23;20511;-75
2022/10/23 04:59:38;;;;;;;21.90;11.48;;;;;;;;;;6097208;23;20018;-75
2022/10/23 05:02:05;;;;;;;12.65;10.25;;;;;;;;;;6074281;23;20502;-75
2022/10/23 05:04:31;;;;;;;18.90;13.00;;;;;;;;;;6121724;23;20060;-75
2022/10/23 05:06:57;;;;;;;15.65;11.88;;;;;;;;;;6147712;23;20028;-75
2022/10/23 05:09:23;;;;;;;15.13;12.23;;;;;;;;;;6147947;23;20059;-75
2022/10/23 05:11:49;;;;;;;15.43;11.75;;;;;;;;;;6148312;23;20337;-75
2022/10/23 05:14:16;;;;;;;15.48;11.75;;;;;;;;;;6149243;23;20010;-75
2022/10/23 05:16:46;;;;;;;16.33;11.30;;;;;;;;;;6148522;23;20016;-75
2022/10/23 05:19:14;;;;;;;17.50;12.88;;;;;;;;;;6147550;23;20396;-75
2022/10/23 05:21:41;;;;;;;19.27;12.45;;;;;;;;;;6147849;23;20020;-75
2022/10/23 05:24:07;;;;;;;18.15;11.98;;;;;;;;;;6148657;23;20049;-75
2022/10/23 05:26:33;;;;;;;15.90;11.88;;;;;;;;;;6147612;23;20009;-75
2022/10/23 05:28:59;;;;;;;21.25;14.27;;;;;;;;;;6149189;23;20502;-75
2022/10/23 05:31:25;;;;;;;19.50;13.73;;;;;;;;;;6124669;23;20714;-76
2022/10/23 05:33:54;;;;;;;17.10;12.32;;;;;;;;;;6148743;23;20010;-75
2022/10/23 05:36:21;;;;;;;15.98;12.10;;;;;;;;;;6147724;23;20459;-75
2022/10/23 05:38:47;;;;;;;19.95;12.88;;;;;;;;;;6148213;23;20096;-75
2022/10/23 05:41:13;;;;;;;19.25;13.77;;;;;;;;;;6124815;23;20122;-75
2022/10/23 05:43:39;;;;;;;17.38;12.43;;;;;;;;;;6147973;23;20536;-75
2022/10/23 05:46:05;;;;;;;19.52;12.98;;;;;;;;;;6149300;23;20096;-75
2022/10/23 05:48:32;;;;;;;19.33;12.98;;;;;;;;;;6148420;23;20313;-75
2022/10/23 05:51:05;;;;;;;15.93;12.68;;;;;;;;;;6124653;23;20022;-75
2022/10/23 05:53:31;;;;;;;16.02;11.90;;;;;;;;;;6121248;23;20451;-75
2022/10/23 05:56:02;;;;;;;18.15;12.40;;;;;;;;;;6097525;23;20018;-75
2022/10/23 05:58:29;;;;;;;19.27;13.20;;;;;;;;;;6146168;23;20360;-75
2022/10/23 06:00:55;;;;;;;20.98;12.73;;;;;;;;;;6097672;23;20050;-75
2022/10/23 06:03:21;;;;;;;22.05;14.30;;;;;;;;;;6144626;23;20018;-75
2022/10/23 06:05:50;;;;;;;20.40;13.65;;;;;;;;;;6145968;23;20300;-75
2022/10/23 06:08:16;;;;;;;20.15;13.38;;;;;;;;;;6145260;23;20109;-75
2022/10/23 06:10:42;;;;;;;20.83;14.60;;;;;;;;;;6144481;23;20017;-75
2022/10/23 06:13:08;;;;;;;19.38;13.25;;;;;;;;;;6146217;23;20017;-74
2022/10/23 06:15:34;;;;;;;19.35;13.75;;;;;;;;;;6147370;23;20091;-75
2022/10/23 06:18:01;;;;;;;15.50;12.60;;;;;;;;;;6122117;23;20017;-75
2022/10/23 06:20:27;;;;;;;16.85;13.55;;;;;;;;;;6097996;23;20026;-75
2022/10/23 06:22:53;;;;;;;21.40;13.02;;;;;;;;;;6122877;23;20148;-75
2022/10/23 06:25:19;;;;;;;23.58;13.68;;;;;;;;;;6145950;23;20017;-74
2022/10/23 06:27:45;;;;;;;18.52;13.52;;;;;;;;;;6121956;23;20020;-75
2022/10/23 06:30:12;;;;;;;15.68;11.98;;;;;;;;;;6147032;23;20017;-75
2022/10/23 06:32:38;;;;;;;24.80;13.52;;;;;;;;;;6145484;23;20017;-74
2022/10/23 06:35:04;;;;;;;26.27;12.95;;;;;;;;;;6146593;23;20439;-75
2022/10/23 06:37:33;;;;;;;16.77;11.88;;;;;;;;;;6147950;23;20025;-76
2022/10/23 06:39:59;;;;;;;22.55;13.60;;;;;;;;;;6145012;23;20019;-75
2022/10/23 06:42:25;;;;;;;21.35;12.60;;;;;;;;;;6145794;23;20036;-75
2022/10/23 06:44:51;;;;;;;16.52;12.15;;;;;;;;;;6147190;23;20048;-75
2022/10/23 06:47:17;;;;;;;16.95;11.80;;;;;;;;;;6150283;23;20021;-75
2022/10/23 06:49:43;;;;;;;20.15;12.85;;;;;;;;;;6146812;23;20020;-75
2022/10/23 06:52:09;;;;;;;21.27;13.70;;;;;;;;;;6147028;23;20161;-75
2022/10/23 06:54:35;;;;;;;23.55;14.65;;;;;;;;;;6124258;23;20345;-75
2022/10/23 06:57:01;;;;;;;23.27;14.98;;;;;;;;;;6100108;23;20014;-75
2022/10/23 06:59:28;;;;;;;22.85;14.02;;;;;;;;;;6148628;23;20083;-75
2022/10/23 07:01:54;;;;;;;20.27;14.90;;;;;;;;;;6150503;23;20014;-74
2022/10/23 07:04:20;;;;;;;25.45;13.88;;;;;;;;;;6149456;23;20024;-75
2022/10/23 07:06:46;;;;;;;18.48;14.00;;;;;;;;;;6149603;23;20436;-74
2022/10/23 07:09:12;;;;;;;20.60;13.30;;;;;;;;;;6123937;23;20021;-75
2022/10/23 07:11:38;;;;;;;18.65;12.10;;;;;;;;;;6149801;23;20081;-77
2022/10/23 07:14:04;;;;;;;20.50;13.38;;;;;;;;;;6150133;23;20013;-75
2022/10/23 07:16:30;;;;;;;20.83;13.13;;;;;;;;;;6147291;23;20013;-74
2022/10/23 07:18:58;;;;;;;20.17;13.20;;;;;;;;;;6123048;23;20092;-75
2022/10/23 07:21:28;;;;;;;16.50;14.13;;;;;;;;;;6147648;23;20089;-77
2022/10/23 07:23:55;;;;;;;18.70;11.27;;;;;;;;;;6148803;23;20076;-76
2022/10/23 07:26:21;;;;;;;20.00;12.98;;;;;;;;;;6099247;23;20045;-75
2022/10/23 07:28:50;;;;;;;21.15;13.98;;;;;;;;;;6147310;23;20025;-74
2022/10/23 07:31:16;;;;;;;16.70;11.57;;;;;;;;;;6149279;23;20325;-74
2022/10/23 07:33:42;;;;;;;18.33;11.90;;;;;;;;;;6148128;23;20439;-74
2022/10/23 07:36:09;;;;;;;16.75;12.10;;;;;;;;;;6147731;23;20021;-75
2022/10/23 07:38:35;;;;;;;20.25;13.10;;;;;;;;;;6150100;23;20021;-75
2022/10/23 07:41:01;;;;;;;23.33;12.80;;;;;;;;;;6149755;23;20100;-75
2022/10/23 07:43:28;;;;;;;23.15;14.98;;;;;;;;;;6125144;23;20383;-76
2022/10/23 07:45:54;;;;;;;15.85;12.95;;;;;;;;;;6148489;23;20018;-76
2022/10/23 07:48:22;;;;;;;19.27;14.85;;;;;;;;;;6123788;23;20017;-75
2022/10/23 07:50:48;;;;;;;18.80;13.30;;;;;;;;;;6148429;23;20044;-75
2022/10/23 07:53:19;;;;;;;16.70;12.40;;;;;;;;;;6148389;23;20521;-76
2022/10/23 07:55:53;;;;;;;14.73;11.35;;;;;;;;;;6122773;23;20017;-76
2022/10/23 07:58:19;;;;;;;21.70;12.80;;;;;;;;;;6148150;23;20347;-76
2022/10/23 08:00:50;;;;;;;18.10;12.00;;;;;;;;;;6148176;23;20017;-76
2022/10/23 08:03:17;;;;;;;17.30;12.07;;;;;;;;;;6147997;23;20466;-76
2022/10/23 08:05:43;;;;;;;16.08;11.68;;;;;;;;;;6147941;23;20035;-76
2022/10/23 08:08:09;;;;;;;18.63;12.68;;;;;;;;;;6148667;23;20385;-75
2022/10/23 08:10:35;;;;;;;17.40;12.45;;;;;;;;;;6123357;23;20010;-75
2022/10/23 08:13:01;;;;;;;18.25;12.40;;;;;;;;;;6148722;23;20020;-75
2022/10/23 08:15:27;;;;;;;14.20;11.60;;;;;;;;;;6124649;23;20028;-75
2022/10/23 08:17:53;;;;;;;19.25;11.63;;;;;;;;;;6148792;23;20391;-75
2022/10/23 08:20:20;;;;;;;20.27;10.48;;;;;;;;;;6123747;23;20028;-75
2022/10/23 08:22:46;;;;;;;18.55;12.13;;;;;;;;;;6148614;23;20021;-75
2022/10/23 08:25:12;;;;;;;17.38;12.15;;;;;;;;;;6147405;23;20084;-75
2022/10/23 08:27:38;;;;;;;21.17;12.02;;;;;;;;;;6123295;23;20047;-75
2022/10/23 08:30:04;;;;;;;17.20;12.30;;;;;;;;;;6124551;23;20172;-75
2022/10/23 08:32:31;;;;;;;18.00;12.77;;;;;;;;;;6148290;23;20538;-75
2022/10/23 08:34:57;;;;;;;19.17;12.73;;;;;;;;;;6147729;23;20018;-75
2022/10/23 08:37:23;;;;;;;17.20;12.00;;;;;;;;;;6148619;23;20021;-75
2022/10/23 08:39:49;;;;;;;18.40;14.18;;;;;;;;;;6124363;23;20475;-75
2022/10/23 08:42:19;;;;;;;17.73;11.40;;;;;;;;;;6099378;23;20013;-75
2022/10/23 08:45:05;;;;;;;18.23;12.68;;;;;;;;;;6146779;23;20043;-75
2022/10/23 08:47:43;;;;;;;17.98;12.50;;;;;;;;;;6123249;23;20365;-75
2022/10/23 08:50:20;;;;;;;13.18;11.20;;;;;;;;;;6147995;23;20459;-76
2022/10/23 08:52:56;;;;;;;18.55;11.75;;;;;;;;;;6148977;23;20013;-75
2022/10/23 08:55:37;;;;;;;21.20;11.85;;;;;;;;;;6148289;23;20013;-75
2022/10/23 08:58:09;;;;;;;18.42;11.68;;;;;;;;;;6123523;23;20018;-75
2022/10/23 09:00:36;;;;;;;19.17;12.65;;;;;;;;;;6122885;23;20480;-75
2022/10/23 09:03:04;;;;;;;17.98;12.15;;;;;;;;;;6147716;23;20053;-75
2022/10/23 09:05:32;;;;;;;16.25;12.20;;;;;;;;;;6123512;23;20403;-76
2022/10/23 09:08:11;;;;;;;19.20;13.13;;;;;;;;;;6122948;23;20021;-75
2022/10/23 09:10:43;;;;;;;19.50;12.43;;;;;;;;;;6147195;23;20074;-76
2022/10/23 09:13:28;;;;;;;16.35;11.38;;;;;;;;;;6147319;23;20017;-75
2022/10/23 09:16:04;;;;;;;17.52;12.40;;;;;;;;;;6147592;23;20020;-75
2022/10/23 09:18:30;;;;;;;14.45;10.80;;;;;;;;;;6148714;23;20049;-74
2022/10/23 09:20:57;;;;;;;15.68;10.70;;;;;;;;;;6148155;23;20079;-75
2022/10/23 09:23:24;;;;;;;14.63;11.52;;;;;;;;;;6124044;23;20061;-75
2022/10/23 09:25:54;;;;;;;14.65;9.77;;;;;;;;;;6123988;23;20616;-75
2022/10/23 09:28:35;;;;;;;13.30;9.70;;;;;;;;;;6123560;23;20328;-75
2022/10/23 09:31:06;;;;;;;19.25;11.13;;;;;;;;;;6147639;23;20014;-76
2022/10/23 09:33:35;;;;;;;18.10;11.32;;;;;;;;;;6124282;23;20616;-76
2022/10/23 09:36:01;;;;;;;15.05;10.18;;;;;;;;;;6147490;23;20440;-76
2022/10/23 09:38:32;;;;;;;18.92;11.00;;;;;;;;;;6148142;23;20013;-76
2022/10/23 09:40:59;;;;;;;14.45;10.73;;;;;;;;;;6147609;23;20566;-76
2022/10/23 09:43:26;;;;;;;13.15;8.95;;;;;;;;;;6147769;23;20014;-75
2022/10/23 09:45:56;;;;;;;11.70;9.73;;;;;;;;;;6122868;23;20361;-76
2022/10/23 09:48:23;;;;;;;13.43;9.13;;;;;;;;;;6149836;23;20483;-75
2022/10/23 09:50:55;;;;;;;13.55;9.45;;;;;;;;;;6149967;23;20347;-75
2022/10/23 09:53:33;;;;;;;15.50;9.98;;;;;;;;;;6150041;23;20014;-75
2022/10/23 09:56:06;;;;;;;13.02;9.77;;;;;;;;;;6148792;23;20010;-75
2022/10/23 09:58:37;;;;;;;15.88;9.38;;;;;;;;;;6100367;23;20028;-75
2022/10/23 10:01:04;;;;;;;13.75;9.13;;;;;;;;;;6149494;23;20014;-75
2022/10/23 10:03:30;;;;;;;11.60;8.23;;;;;;;;;;6124651;23;20100;-75
2022/10/23 10:05:58;;;;;;;13.70;8.48;;;;;;;;;;6150117;23;20017;-75
2022/10/23 10:08:27;;;;;;;15.82;8.32;;;;;;;;;;6149137;23;20463;-80
2022/10/23 10:10:57;;;;;;;16.70;8.73;;;;;;;;;;6149212;23;20013;-75
2022/10/23 10:13:32;;;;;;;12.50;7.20;;;;;;;;;;6148823;23;20390;-75
2022/10/23 10:16:02;;;;;;;12.68;8.27;;;;;;;;;;6149868;23;20068;-75
2022/10/23 10:18:32;;;;;;;9.38;7.53;;;;;;;;;;6149173;23;20472;-75
2022/10/23 10:21:16;;;;;;;12.02;9.48;;;;;;;;;;6149257;23;20373;-75
2022/10/23 10:24:00;;;;;;;19.95;8.88;;;;;;;;;;6149424;23;20025;-75
2022/10/23 10:26:32;;;;;;;12.10;7.97;;;;;;;;;;6149335;23;20018;-75
2022/10/23 10:29:10;;;;;;;12.02;7.68;;;;;;;;;;6125048;23;20363;-75
2022/10/23 10:31:51;;;;;;;13.57;7.43;;;;;;;;;;6124994;23;20013;-75
2022/10/23 10:34:21;;;;;;;12.40;7.88;;;;;;;;;;6147485;23;20014;-75
2022/10/23 10:37:06;;;;;;;14.52;9.15;;;;;;;;;;6147267;23;20009;-76
2022/10/23 10:39:45;;;;;;;11.65;7.18;;;;;;;;;;6098417;23;20076;-76
2022/10/23 10:42:11;;;;;;;12.43;7.28;;;;;;;;;;6147250;23;20009;-76
2022/10/23 10:44:46;;;;;;;11.60;7.45;;;;;;;;;;6124033;23;20014;-75
2022/10/23 10:47:12;;;;;;;12.30;6.88;;;;;;;;;;6147719;23;20108;-75
2022/10/23 10:49:41;;;;;;;9.50;6.93;;;;;;;;;;6147766;23;20060;-74
2022/10/23 10:52:07;;;;;;;13.70;7.13;;;;;;;;;;6147867;23;20013;-75
2022/10/23 10:54:33;;;;;;;10.20;6.57;;;;;;;;;;6148433;23;20010;-75
2022/10/23 10:57:01;;;;;;;12.10;7.22;;;;;;;;;;6147878;23;20013;-75
2022/10/23 10:59:28;;;;;;;9.50;6.63;;;;;;;;;;6123330;23;20417;-78
2022/10/23 11:02:13;;;;;;;11.38;6.32;;;;;;;;;;6148769;23;20468;-76
2022/10/23 11:04:50;;;;;;;11.20;6.38;;;;;;;;;;6148001;23;20428;-78
2022/10/23 11:07:20;;;;;;;11.77;6.28;;;;;;;;;;6147939;23;20040;-76
2022/10/23 11:09:46;;;;;;;10.88;5.95;;;;;;;;;;6147851;23;20018;-77
2022/10/23 11:12:21;;;;;;;7.88;5.95;;;;;;;;;;6124019;23;20463;-78
2022/10/23 11:14:47;;;;;;;10.40;6.88;;;11.10;99.90;;;;;;6148874;23;20025;-77
2022/10/23 11:17:23;;;;;;;14.63;5.68;;;;;;;;;;6125008;23;20068;-78
2022/10/23 11:20:00;;;;;;;7.22;4.10;;;;;;;;;;6125074;23;20053;-77
2022/10/23 11:22:30;;;;;;;9.90;5.78;;;;;;;;;;6149132;23;20027;-76
2022/10/23 11:25:08;;;;;;;12.25;4.80;;;;;;;;;;6149692;23;20017;-76
2022/10/23 11:27:46;;;;;;;7.95;4.93;;;;;;;;;;6148324;23;20161;-75
2022/10/23 11:30:17;;;;;;;12.23;5.65;;;;;;;;;;6123525;23;20427;-75
2022/10/23 11:32:47;;;;;;;11.68;5.78;;;;;;;;;;6145803;23;20017;-75
2022/10/23 11:35:29;;;;;;;10.25;4.85;;;;;;;;;;6121046;23;20052;-75
2022/10/23 11:38:14;;;;;;;10.15;5.75;;;;;;;;;;6145689;23;20021;-74
2022/10/23 11:40:44;;;;;;;9.80;5.75;;;;;;;;;;6125935;23;20013;-83
2022/10/23 11:43:10;;;;;;;7.82;4.70;;;;;;;;;;6152177;23;20103;-83
2022/10/23 11:45:38;;;;;;;10.27;4.80;;;;;;;;;;6151736;23;20115;-81
2022/10/23 11:48:05;;;;;;;8.27;4.75;;;;;;;;;;6152091;23;20455;-82
2022/10/23 11:50:57;;;;;;;14.82;5.43;;;;;;;;;;6151757;23;20021;-83
2022/10/23 11:53:24;;;;;;;8.98;4.32;;;;;;;;;;6143843;23;20018;-83
2022/10/23 11:56:19;;;;;;;9.77;3.95;;;;;;;;;;6127920;23;20045;-84
2022/10/23 11:58:45;;;;;;;7.97;3.90;;;;;;;;;;6081197;23;20018;-83
2022/10/23 12:01:33;;;;;;;11.20;3.70;;;;;;;;;;6148384;23;20356;-83
2022/10/23 12:04:06;;;;;;;9.60;3.80;;;;;;;;;;6148183;23;20309;-83
2022/10/23 12:06:38;;;;;;;12.45;3.40;;;;;;;;;;6147914;23;20020;-81
2022/10/23 12:09:20;;;;;;;7.80;3.55;;;14.50;99.90;;;;;;6144736;23;20333;-83
2022/10/23 12:11:47;;;;;;;7.07;3.50;;;;;;;;;;6121484;23;20017;-84
2022/10/23 12:14:33;;;;;;;5.28;4.20;;;;;;;;;;6146406;23;20040;-83
2022/10/23 12:17:00;;;;;;;12.90;5.45;;;;;;;;;;6121452;23;20440;-83
2022/10/23 12:19:36;;;;;;;9.93;4.88;;;15.00;99.90;;;;;;6097269;23;20301;-83
2022/10/23 12:22:02;;;;;;;8.20;4.65;;;15.00;99.90;;;;;;6120981;23;20404;-83
2022/10/23 12:24:45;;;;;;;8.18;4.00;;;15.00;99.90;;;;;;6122195;23;20028;-84
2022/10/23 12:27:26;;;;;;;12.95;4.45;;;15.00;99.90;;;;;;6146553;23;20022;-82
2022/10/23 12:30:03;;;;;;;6.10;4.03;;;15.00;99.90;;;;;;6145635;23;20009;-84
2022/10/23 12:32:40;;;;;;;8.05;4.10;;;15.00;99.90;;;;;;6145558;23;20364;-84
2022/10/23 12:35:48;;;;;;;6.85;4.57;;;15.00;99.90;;;;;;6146329;23;20013;-84
2022/10/23 12:38:15;;;;;;;7.82;3.60;;;15.00;99.90;;;;;;6146711;23;20017;-84
2022/10/23 12:40:53;;;;;;;10.43;4.20;;;15.10;99.90;;;;;;6121756;23;20104;-84
2022/10/23 12:43:31;;;;;;;9.00;3.88;;;15.10;99.90;;;;;;6146684;23;20188;-83
2022/10/23 12:46:21;;;;;;;11.85;3.70;;;15.10;99.90;;;;;;6146445;23;20360;-82
2022/10/23 12:48:49;;;;;;;10.77;4.38;;;15.10;99.90;;;;;;6099797;23;20030;-80
2022/10/23 12:51:35;;;;;;;13.70;4.97;;;15.10;99.90;;;;;;6144864;23;20391;-80
2022/10/23 12:54:02;;;;;;;5.07;3.40;;;;;;;;;;6119990;23;20017;-81
2022/10/23 12:56:34;;;;;;;5.07;3.20;;;;;;;;;;6146395;23;20058;-80
2022/10/23 12:59:00;;;;;;;9.67;3.73;;;;;;;;;;6144385;23;20025;-81
2022/10/23 13:01:28;;;;;;;10.52;4.15;;;;;;;;;;6121123;23;20460;-81
2022/10/23 13:03:59;;;;;;;7.78;4.35;;;;;;;;;;6144875;23;20036;-80
2022/10/23 13:06:25;;;;;;;8.38;4.07;;;;;;;;;;6146134;23;20025;-80
2022/10/23 13:08:51;;;;;;;11.35;3.85;;;;;;;;;;6146548;23;20024;-81
2022/10/23 13:11:19;;;;;;;10.05;4.47;;;;;;;;;;6147576;23;20071;-80
2022/10/23 13:13:45;;;;;;;8.98;4.40;;;;;;;;;;6147292;23;20084;-81
2022/10/23 13:16:16;;;;;;;13.35;5.22;;;;;;;;;;6148847;23;20024;-81
2022/10/23 13:18:42;;;;;;;7.65;3.58;;;;;;;;;;6147478;23;20368;-81
2022/10/23 13:21:22;;;;;;;5.28;3.42;;;;;;;;;;6099371;23;20025;-81
2022/10/23 13:23:48;;;;;;;8.43;3.97;;;;;;;;;;6149716;23;20100;-82
2022/10/23 13:26:30;;;;;;;5.90;3.95;;;;;;;;;;6150193;23;20441;-81
2022/10/23 13:28:57;;;;;;;6.95;3.75;;;;;;;;;;6149510;23;20025;-81
2022/10/23 13:31:23;;;;;;;8.98;3.75;;;;;;;;;;6149299;23;20289;-82
2022/10/23 13:33:53;;;;;;;9.43;3.47;;;;;;;;;;6149585;23;20013;-81
2022/10/23 13:36:23;;;;;;;7.65;3.53;;;;;;;;;;6149769;23;20088;-81
2022/10/23 13:38:59;;;;;;;8.55;3.88;;;;;;;;;;6149228;23;20021;-81
2022/10/23 13:41:26;;;;;;;7.07;3.90;;;;;;;;;;6148974;23;20444;-80
2022/10/23 13:43:52;;;;;;;7.38;3.80;;;;;;;;;;6150998;23;20017;-82
2022/10/23 13:46:24;;;;;;;7.82;3.53;;;;;;;;;;6150719;23;20032;-83
2022/10/23 13:48:50;;;;;;;10.30;3.10;;;;;;;;;;6149259;23;20014;-84
2022/10/23 13:51:21;;;;;;;13.73;4.85;;;;;;;;;;6149283;23;20017;-84
2022/10/23 13:53:47;;;;;;;8.52;4.72;;;;;;;;;;6125074;23;20035;-83
2022/10/23 13:56:14;;;;;;;8.13;4.05;;;;;;;;;;6124664;23;20010;-84
2022/10/23 13:58:41;;;;;;;7.85;4.13;;;;;;;;;;6124439;23;20026;-83
2022/10/23 14:01:23;;;;;;;14.50;4.50;;;;;;;;;;6125787;23;20049;-83
2022/10/23 14:03:50;;;;;;;5.45;3.55;;;;;;;;;;6150278;23;20336;-84
2022/10/23 14:06:16;;;;;;;7.90;3.85;;;;;;;;;;6149729;23;20022;-82
2022/10/23 14:08:42;;;;;;;21.52;4.78;;;;;;;;;;6124339;23;20032;-83
2022/10/23 14:11:10;;;;;;;5.68;3.40;;;;;;;;;;6149420;23;20041;-83
2022/10/23 14:13:36;;;;;;;7.13;4.15;;;;;;;;;;6122868;23;20016;-83
2022/10/23 14:16:02;;;;;;;8.85;4.32;;;;;;;;;;6100651;23;20014;-83
2022/10/23 14:18:28;;;;;;;6.70;3.30;;;;;;;;;;6149483;23;20053;-83
2022/10/23 14:20:54;;;;;;;5.75;3.20;;;;;;;;;;6146556;23;20256;-83
2022/10/23 14:23:20;;;;;;;6.28;3.30;;;;;;;;;;6146951;23;20432;-83
2022/10/23 14:25:46;;;;;;;7.53;3.47;;;;;;;;;;6147495;23;20021;-83
2022/10/23 14:28:12;;;;;;;9.30;3.67;;;;;;;;;;6098141;23;20017;-82